sensor_id;sensor_type;location;lat;lon;timestamp;temperature;humidity
46159;DHT22;31888;44.512;26.104;2022-12-18T00:00:11;7.40;99.90
46159;DHT22;31888;44.512;26.104;2022-12-18T00:02:35;7.60;99.90
46159;DHT22;31888;44.512;26.104;2022-12-18T00:05:00;7.60;99.90
46159;DHT22;31888;44.512;26.104;2022-12-18T00:07:25;7.60;99.90
46159;DHT22;31888;44.512;26.104;2022-12-18T00:09:50;7.70;99.90
46159;DHT22;31888;44.512;26.104;2022-12-18T00:12:14;7.70;99.90
46159;DHT22;31888;44.512;26.104;2022-12-18T00:14:43;7.70;99.90
46159;DHT22;31888;44.512;26.104;2022-12-18T00:17:09;7.60;99.90
46159;DHT22;31888;44.512;26.104;2022-12-18T00:19:33;7.70;99.90
46159;DHT22;31888;44.512;26.104;2022-12-18T00:21:58;7.70;99.90
46159;DHT22;31888;44.512;26.104;2022-12-18T00:24:22;7.60;99.90
46159;DHT22;31888;44.512;26.104;2022-12-18T00:26:47;7.50;99.90
46159;DHT22;31888;44.512;26.104;2022-12-18T00:29:13;7.30;99.90
46159;DHT22;31888;44.512;26.104;2022-12-18T00:31:39;7.20;99.90
46159;DHT22;31888;44.512;26.104;2022-12-18T00:34:05;7.20;99.90
46159;DHT22;31888;44.512;26.104;2022-12-18T00:36:32;7.10;99.90
46159;DHT22;31888;44.512;26.104;2022-12-18T00:38:58;7.00;99.90
46159;DHT22;31888;44.512;26.104;2022-12-18T00:41:23;7.00;99.90
46159;DHT22;31888;44.512;26.104;2022-12-18T00:44:10;7.00;99.90
46159;DHT22;31888;44.512;26.104;2022-12-18T00:46:34;7.10;99.90
46159;DHT22;31888;44.512;26.104;2022-12-18T00:48:59;7.20;99.90
46159;DHT22;31888;44.512;26.104;2022-12-18T00:51:25;7.10;99.90
46159;DHT22;31888;44.512;26.104;2022-12-18T00:53:50;7.00;99.90
46159;DHT22;31888;44.512;26.104;2022-12-18T00:56:15;7.00;99.90
46159;DHT22;31888;44.512;26.104;2022-12-18T00:58:42;7.00;99.90
46159;DHT22;31888;44.512;26.104;2022-12-18T01:01:06;7.00;99.90
46159;DHT22;31888;44.512;26.104;2022-12-18T01:03:31;7.00;99.90
46159;DHT22;31888;44.512;26.104;2022-12-18T01:05:55;7.10;99.90
46159;DHT22;31888;44.512;26.104;2022-12-18T01:08:21;7.10;99.90
46159;DHT22;31888;44.512;26.104;2022-12-18T01:10:46;7.10;99.90
46159;DHT22;31888;44.512;26.104;2022-12-18T01:13:10;7.20;99.90
46159;DHT22;31888;44.512;26.104;2022-12-18T01:15:35;7.10;99.90
46159;DHT22;31888;44.512;26.104;2022-12-18T01:17:59;7.00;99.90
46159;DHT22;31888;44.512;26.104;2022-12-18T01:20:24;7.10;99.90
46159;DHT22;31888;44.512;26.104;2022-12-18T01:22:49;7.00;99.90
46159;DHT22;31888;44.512;26.104;2022-12-18T01:25:14;7.00;99.90
46159;DHT22;31888;44.512;26.104;2022-12-18T01:27:39;7.00;99.90
46159;DHT22;31888;44.512;26.104;2022-12-18T01:30:04;7.10;99.90
46159;DHT22;31888;44.512;26.104;2022-12-18T01:32:30;7.10;99.90
46159;DHT22;31888;44.512;26.104;2022-12-18T01:34:54;7.00;99.90
46159;DHT22;31888;44.512;26.104;2022-12-18T01:37:19;7.10;99.90
46159;DHT22;31888;44.512;26.104;2022-12-18T01:39:44;7.10;99.90
46159;DHT22;31888;44.512;26.104;2022-12-18T01:42:12;7.10;99.90
46159;DHT22;31888;44.512;26.104;2022-12-18T01:45:05;7.20;99.90
46159;DHT22;31888;44.512;26.104;2022-12-18T01:47:36;7.10;99.90
46159;DHT22;31888;44.512;26.104;2022-12-18T01:50:06;7.00;99.90
46159;DHT22;31888;44.512;26.104;2022-12-18T01:52:33;7.00;99.90
46159;DHT22;31888;44.512;26.104;2022-12-18T01:54:58;6.90;99.90
46159;DHT22;31888;44.512;26.104;2022-12-18T01:57:27;6.80;99.90
46159;DHT22;31888;44.512;26.104;2022-12-18T01:59:53;6.80;99.90
46159;DHT22;31888;44.512;26.104;2022-12-18T02:02:19;6.80;99.90
46159;DHT22;31888;44.512;26.104;2022-12-18T02:04:44;6.70;99.90
46159;DHT22;31888;44.512;26.104;2022-12-18T02:07:17;6.70;99.90
46159;DHT22;31888;44.512;26.104;2022-12-18T02:09:48;6.70;99.90
46159;DHT22;31888;44.512;26.104;2022-12-18T02:12:18;6.60;99.90
46159;DHT22;31888;44.512;26.104;2022-12-18T02:14:52;6.60;99.90
46159;DHT22;31888;44.512;26.104;2022-12-18T02:17:22;6.50;99.90
46159;DHT22;31888;44.512;26.104;2022-12-18T02:20:01;6.40;99.90
46159;DHT22;31888;44.512;26.104;2022-12-18T02:22:37;6.20;99.90
46159;DHT22;31888;44.512;26.104;2022-12-18T02:25:16;6.20;99.90
46159;DHT22;31888;44.512;26.104;2022-12-18T02:27:47;6.10;99.90
46159;DHT22;31888;44.512;26.104;2022-12-18T02:30:13;6.00;99.90
46159;DHT22;31888;44.512;26.104;2022-12-18T02:32:41;5.90;99.90
46159;DHT22;31888;44.512;26.104;2022-12-18T02:35:10;6.00;99.90
46159;DHT22;31888;44.512;26.104;2022-12-18T02:37:39;6.10;99.90
46159;DHT22;31888;44.512;26.104;2022-12-18T02:40:05;6.10;99.90
46159;DHT22;31888;44.512;26.104;2022-12-18T02:42:32;6.10;99.90
46159;DHT22;31888;44.512;26.104;2022-12-18T02:45:02;6.10;99.90
46159;DHT22;31888;44.512;26.104;2022-12-18T02:47:30;6.20;99.90
46159;DHT22;31888;44.512;26.104;2022-12-18T02:50:02;6.20;99.90
46159;DHT22;31888;44.512;26.104;2022-12-18T02:52:38;6.10;99.90
46159;DHT22;31888;44.512;26.104;2022-12-18T02:55:25;6.20;99.90
46159;DHT22;31888;44.512;26.104;2022-12-18T02:58:02;6.10;99.90
46159;DHT22;31888;44.512;26.104;2022-12-18T03:00:38;6.00;99.90
46159;DHT22;31888;44.512;26.104;2022-12-18T03:03:07;6.00;99.90
46159;DHT22;31888;44.512;26.104;2022-12-18T03:05:33;6.00;99.90
46159;DHT22;31888;44.512;26.104;2022-12-18T03:08:05;6.00;99.90
46159;DHT22;31888;44.512;26.104;2022-12-18T03:10:37;6.00;99.90
46159;DHT22;31888;44.512;26.104;2022-12-18T03:13:06;6.00;99.90
46159;DHT22;31888;44.512;26.104;2022-12-18T03:15:35;6.00;99.90
46159;DHT22;31888;44.512;26.104;2022-12-18T03:18:08;6.00;99.90
46159;DHT22;31888;44.512;26.104;2022-12-18T03:20:35;6.00;99.90
46159;DHT22;31888;44.512;26.104;2022-12-18T03:23:06;6.00;99.90
46159;DHT22;31888;44.512;26.104;2022-12-18T03:25:31;6.00;99.90
46159;DHT22;31888;44.512;26.104;2022-12-18T03:27:59;5.90;99.90
46159;DHT22;31888;44.512;26.104;2022-12-18T03:30:27;5.80;99.90
46159;DHT22;31888;44.512;26.104;2022-12-18T03:33:02;5.80;99.90
46159;DHT22;31888;44.512;26.104;2022-12-18T03:35:35;5.80;99.90
46159;DHT22;31888;44.512;26.104;2022-12-18T03:38:01;5.90;99.90
46159;DHT22;31888;44.512;26.104;2022-12-18T03:40:31;5.90;99.90
46159;DHT22;31888;44.512;26.104;2022-12-18T03:43:01;5.90;99.90
46159;DHT22;31888;44.512;26.104;2022-12-18T03:45:34;5.90;99.90
46159;DHT22;31888;44.512;26.104;2022-12-18T03:48:05;5.90;99.90
46159;DHT22;31888;44.512;26.104;2022-12-18T03:50:41;6.00;99.90
46159;DHT22;31888;44.512;26.104;2022-12-18T03:53:18;6.00;99.90
46159;DHT22;31888;44.512;26.104;2022-12-18T03:55:45;6.10;99.90
46159;DHT22;31888;44.512;26.104;2022-12-18T03:58:14;6.00;99.90
46159;DHT22;31888;44.512;26.104;2022-12-18T04:00:52;6.10;99.90
46159;DHT22;31888;44.512;26.104;2022-12-18T04:03:21;6.20;99.90
46159;DHT22;31888;44.512;26.104;2022-12-18T04:05:48;6.30;99.90
46159;DHT22;31888;44.512;26.104;2022-12-18T04:08:16;6.30;99.90
46159;DHT22;31888;44.512;26.104;2022-12-18T04:10:48;6.30;99.90
46159;DHT22;31888;44.512;26.104;2022-12-18T04:13:21;6.40;99.90
46159;DHT22;31888;44.512;26.104;2022-12-18T04:15:46;6.40;99.90
46159;DHT22;31888;44.512;26.104;2022-12-18T04:18:13;6.50;99.90
46159;DHT22;31888;44.512;26.104;2022-12-18T04:20:41;6.50;99.90
46159;DHT22;31888;44.512;26.104;2022-12-18T04:23:06;6.60;99.90
46159;DHT22;31888;44.512;26.104;2022-12-18T04:25:32;6.60;99.90
46159;DHT22;31888;44.512;26.104;2022-12-18T04:28:03;6.70;99.90
46159;DHT22;31888;44.512;26.104;2022-12-18T04:30:29;6.70;99.90
46159;DHT22;31888;44.512;26.104;2022-12-18T04:32:54;6.70;99.90
46159;DHT22;31888;44.512;26.104;2022-12-18T04:35:19;6.70;99.90
46159;DHT22;31888;44.512;26.104;2022-12-18T04:37:46;6.60;99.90
46159;DHT22;31888;44.512;26.104;2022-12-18T04:40:12;6.60;99.90
46159;DHT22;31888;44.512;26.104;2022-12-18T04:42:40;6.60;99.90
46159;DHT22;31888;44.512;26.104;2022-12-18T04:45:06;6.50;99.90
46159;DHT22;31888;44.512;26.104;2022-12-18T04:47:31;6.50;99.90
46159;DHT22;31888;44.512;26.104;2022-12-18T04:49:55;6.40;99.90
46159;DHT22;31888;44.512;26.104;2022-12-18T04:52:20;6.40;99.90
46159;DHT22;31888;44.512;26.104;2022-12-18T04:54:49;6.30;99.90
46159;DHT22;31888;44.512;26.104;2022-12-18T04:57:13;6.30;99.90
46159;DHT22;31888;44.512;26.104;2022-12-18T04:59:38;6.30;99.90
46159;DHT22;31888;44.512;26.104;2022-12-18T05:02:02;6.30;99.90
46159;DHT22;31888;44.512;26.104;2022-12-18T05:04:27;6.30;99.90
46159;DHT22;31888;44.512;26.104;2022-12-18T05:06:52;6.30;99.90
46159;DHT22;31888;44.512;26.104;2022-12-18T05:09:16;6.40;99.90
46159;DHT22;31888;44.512;26.104;2022-12-18T05:11:42;6.20;99.90
46159;DHT22;31888;44.512;26.104;2022-12-18T05:14:08;6.00;99.90
46159;DHT22;31888;44.512;26.104;2022-12-18T05:16:32;5.90;99.90
46159;DHT22;31888;44.512;26.104;2022-12-18T05:18:57;5.80;99.90
46159;DHT22;31888;44.512;26.104;2022-12-18T05:21:21;5.60;99.90
46159;DHT22;31888;44.512;26.104;2022-12-18T05:23:46;5.60;99.90
46159;DHT22;31888;44.512;26.104;2022-12-18T05:26:14;5.40;99.90
46159;DHT22;31888;44.512;26.104;2022-12-18T05:28:40;5.30;99.90
46159;DHT22;31888;44.512;26.104;2022-12-18T05:31:05;5.40;99.90
46159;DHT22;31888;44.512;26.104;2022-12-18T05:33:32;5.30;99.90
46159;DHT22;31888;44.512;26.104;2022-12-18T05:35:58;5.20;99.90
46159;DHT22;31888;44.512;26.104;2022-12-18T05:38:25;5.10;99.90
46159;DHT22;31888;44.512;26.104;2022-12-18T05:40:50;5.10;99.90
46159;DHT22;31888;44.512;26.104;2022-12-18T05:43:14;5.00;99.90
46159;DHT22;31888;44.512;26.104;2022-12-18T05:45:45;4.90;99.90
46159;DHT22;31888;44.512;26.104;2022-12-18T05:48:09;5.10;99.90
46159;DHT22;31888;44.512;26.104;2022-12-18T05:50:34;5.00;99.90
46159;DHT22;31888;44.512;26.104;2022-12-18T05:52:59;5.10;99.90
46159;DHT22;31888;44.512;26.104;2022-12-18T05:55:23;5.00;99.90
46159;DHT22;31888;44.512;26.104;2022-12-18T05:57:49;5.00;99.90
46159;DHT22;31888;44.512;26.104;2022-12-18T06:00:14;4.90;99.90
46159;DHT22;31888;44.512;26.104;2022-12-18T06:02:41;5.00;99.90
46159;DHT22;31888;44.512;26.104;2022-12-18T06:05:06;4.80;99.90
46159;DHT22;31888;44.512;26.104;2022-12-18T06:07:32;4.60;99.90
46159;DHT22;31888;44.512;26.104;2022-12-18T06:09:56;4.60;99.90
46159;DHT22;31888;44.512;26.104;2022-12-18T06:12:21;4.50;99.90
46159;DHT22;31888;44.512;26.104;2022-12-18T06:14:45;4.60;99.90
46159;DHT22;31888;44.512;26.104;2022-12-18T06:17:10;4.50;99.90
46159;DHT22;31888;44.512;26.104;2022-12-18T06:19:36;4.50;99.90
46159;DHT22;31888;44.512;26.104;2022-12-18T06:22:00;4.50;99.90
46159;DHT22;31888;44.512;26.104;2022-12-18T06:24:25;4.40;99.90
46159;DHT22;31888;44.512;26.104;2022-12-18T06:26:49;4.40;99.90
46159;DHT22;31888;44.512;26.104;2022-12-18T06:29:14;4.40;99.90
46159;DHT22;31888;44.512;26.104;2022-12-18T06:31:39;4.40;99.90
46159;DHT22;31888;44.512;26.104;2022-12-18T06:34:04;4.40;99.90
46159;DHT22;31888;44.512;26.104;2022-12-18T06:36:31;4.40;99.90
46159;DHT22;31888;44.512;26.104;2022-12-18T06:38:56;4.40;99.90
46159;DHT22;31888;44.512;26.104;2022-12-18T06:41:21;4.30;99.90
46159;DHT22;31888;44.512;26.104;2022-12-18T06:43:45;4.40;99.90
46159;DHT22;31888;44.512;26.104;2022-12-18T06:46:12;4.40;99.90
46159;DHT22;31888;44.512;26.104;2022-12-18T06:48:40;4.40;99.90
46159;DHT22;31888;44.512;26.104;2022-12-18T06:51:04;4.40;99.90
46159;DHT22;31888;44.512;26.104;2022-12-18T06:53:32;4.30;99.90
46159;DHT22;31888;44.512;26.104;2022-12-18T06:56:00;4.40;99.90
46159;DHT22;31888;44.512;26.104;2022-12-18T06:58:32;4.30;99.90
46159;DHT22;31888;44.512;26.104;2022-12-18T07:01:00;4.40;99.90
46159;DHT22;31888;44.512;26.104;2022-12-18T07:03:25;4.30;99.90
46159;DHT22;31888;44.512;26.104;2022-12-18T07:05:50;4.30;99.90
46159;DHT22;31888;44.512;26.104;2022-12-18T07:08:15;4.30;99.90
46159;DHT22;31888;44.512;26.104;2022-12-18T07:10:44;4.30;99.90
46159;DHT22;31888;44.512;26.104;2022-12-18T07:13:19;4.20;99.90
46159;DHT22;31888;44.512;26.104;2022-12-18T07:15:44;4.20;99.90
46159;DHT22;31888;44.512;26.104;2022-12-18T07:18:08;4.10;99.90
46159;DHT22;31888;44.512;26.104;2022-12-18T07:20:33;4.20;99.90
46159;DHT22;31888;44.512;26.104;2022-12-18T07:22:58;4.20;99.90
46159;DHT22;31888;44.512;26.104;2022-12-18T07:25:22;4.20;99.90
46159;DHT22;31888;44.512;26.104;2022-12-18T07:27:48;4.10;99.90
46159;DHT22;31888;44.512;26.104;2022-12-18T07:30:13;4.10;99.90
46159;DHT22;31888;44.512;26.104;2022-12-18T07:32:39;4.10;99.90
46159;DHT22;31888;44.512;26.104;2022-12-18T07:35:04;4.10;99.90
46159;DHT22;31888;44.512;26.104;2022-12-18T07:37:29;4.20;99.90
46159;DHT22;31888;44.512;26.104;2022-12-18T07:39:53;4.20;99.90
46159;DHT22;31888;44.512;26.104;2022-12-18T07:42:18;4.20;99.90
46159;DHT22;31888;44.512;26.104;2022-12-18T07:44:56;4.20;99.90
46159;DHT22;31888;44.512;26.104;2022-12-18T07:47:20;4.30;99.90
46159;DHT22;31888;44.512;26.104;2022-12-18T07:49:45;4.30;99.90
46159;DHT22;31888;44.512;26.104;2022-12-18T07:52:09;4.30;99.90
46159;DHT22;31888;44.512;26.104;2022-12-18T07:54:35;4.40;99.90
46159;DHT22;31888;44.512;26.104;2022-12-18T07:56:59;4.30;99.90
46159;DHT22;31888;44.512;26.104;2022-12-18T07:59:25;4.20;99.90
46159;DHT22;31888;44.512;26.104;2022-12-18T08:01:51;4.30;99.90
46159;DHT22;31888;44.512;26.104;2022-12-18T08:04:17;4.30;99.90
46159;DHT22;31888;44.512;26.104;2022-12-18T08:06:41;4.50;99.90
46159;DHT22;31888;44.512;26.104;2022-12-18T08:09:10;4.50;99.90
46159;DHT22;31888;44.512;26.104;2022-12-18T08:11:34;4.50;99.90
46159;DHT22;31888;44.512;26.104;2022-12-18T08:13:59;4.50;99.90
46159;DHT22;31888;44.512;26.104;2022-12-18T08:16:23;4.50;99.90
46159;DHT22;31888;44.512;26.104;2022-12-18T08:18:51;4.50;99.90
46159;DHT22;31888;44.512;26.104;2022-12-18T08:21:17;4.50;99.90
46159;DHT22;31888;44.512;26.104;2022-12-18T08:23:44;4.50;99.90
46159;DHT22;31888;44.512;26.104;2022-12-18T08:26:09;4.60;99.90
46159;DHT22;31888;44.512;26.104;2022-12-18T08:28:34;4.60;99.90
46159;DHT22;31888;44.512;26.104;2022-12-18T08:30:59;4.50;99.90
46159;DHT22;31888;44.512;26.104;2022-12-18T08:33:24;4.50;99.90
46159;DHT22;31888;44.512;26.104;2022-12-18T08:35:50;4.40;99.90
46159;DHT22;31888;44.512;26.104;2022-12-18T08:38:15;4.50;99.90
46159;DHT22;31888;44.512;26.104;2022-12-18T08:40:39;4.60;99.90
46159;DHT22;31888;44.512;26.104;2022-12-18T08:43:03;4.50;99.90
46159;DHT22;31888;44.512;26.104;2022-12-18T08:45:45;4.50;99.90
46159;DHT22;31888;44.512;26.104;2022-12-18T08:48:10;4.60;99.90
46159;DHT22;31888;44.512;26.104;2022-12-18T08:50:39;4.70;99.90
46159;DHT22;31888;44.512;26.104;2022-12-18T08:53:05;4.70;99.90
46159;DHT22;31888;44.512;26.104;2022-12-18T08:55:30;4.50;99.90
46159;DHT22;31888;44.512;26.104;2022-12-18T08:57:54;4.60;99.90
46159;DHT22;31888;44.512;26.104;2022-12-18T09:00:19;4.50;99.90
46159;DHT22;31888;44.512;26.104;2022-12-18T09:02:43;4.50;99.90
46159;DHT22;31888;44.512;26.104;2022-12-18T09:05:08;4.50;99.90
46159;DHT22;31888;44.512;26.104;2022-12-18T09:07:33;4.50;99.90
46159;DHT22;31888;44.512;26.104;2022-12-18T09:09:58;4.60;99.90
46159;DHT22;31888;44.512;26.104;2022-12-18T09:12:25;4.50;99.90
46159;DHT22;31888;44.512;26.104;2022-12-18T09:14:52;4.60;99.90
46159;DHT22;31888;44.512;26.104;2022-12-18T09:17:17;4.70;99.90
46159;DHT22;31888;44.512;26.104;2022-12-18T09:19:41;4.60;99.90
46159;DHT22;31888;44.512;26.104;2022-12-18T09:22:06;4.70;99.90
46159;DHT22;31888;44.512;26.104;2022-12-18T09:24:30;4.60;99.90
46159;DHT22;31888;44.512;26.104;2022-12-18T09:26:56;4.50;99.90
46159;DHT22;31888;44.512;26.104;2022-12-18T09:29:21;4.50;99.90
46159;DHT22;31888;44.512;26.104;2022-12-18T09:31:45;4.50;99.90
46159;DHT22;31888;44.512;26.104;2022-12-18T09:34:10;4.40;99.90
46159;DHT22;31888;44.512;26.104;2022-12-18T09:36:35;4.50;99.90
46159;DHT22;31888;44.512;26.104;2022-12-18T09:38:59;4.50;99.90
46159;DHT22;31888;44.512;26.104;2022-12-18T09:41:40;4.50;99.90
46159;DHT22;31888;44.512;26.104;2022-12-18T09:44:18;4.50;99.90
46159;DHT22;31888;44.512;26.104;2022-12-18T09:46:46;4.30;99.90
46159;DHT22;31888;44.512;26.104;2022-12-18T09:49:14;4.20;99.90
46159;DHT22;31888;44.512;26.104;2022-12-18T09:51:44;4.30;99.90
46159;DHT22;31888;44.512;26.104;2022-12-18T09:54:14;4.40;99.90
46159;DHT22;31888;44.512;26.104;2022-12-18T09:56:42;4.20;99.90
46159;DHT22;31888;44.512;26.104;2022-12-18T09:59:18;4.20;99.90
46159;DHT22;31888;44.512;26.104;2022-12-18T10:01:43;4.30;99.90
46159;DHT22;31888;44.512;26.104;2022-12-18T10:04:09;4.20;99.90
46159;DHT22;31888;44.512;26.104;2022-12-18T10:06:39;4.00;99.90
46159;DHT22;31888;44.512;26.104;2022-12-18T10:09:08;4.00;99.90
46159;DHT22;31888;44.512;26.104;2022-12-18T10:11:43;4.10;99.90
46159;DHT22;31888;44.512;26.104;2022-12-18T10:14:17;4.10;99.90
46159;DHT22;31888;44.512;26.104;2022-12-18T10:16:51;4.00;99.90
46159;DHT22;31888;44.512;26.104;2022-12-18T10:19:30;3.90;99.90
46159;DHT22;31888;44.512;26.104;2022-12-18T10:22:07;3.80;99.90
46159;DHT22;31888;44.512;26.104;2022-12-18T10:24:41;3.80;99.90
46159;DHT22;31888;44.512;26.104;2022-12-18T10:27:13;3.70;99.90
46159;DHT22;31888;44.512;26.104;2022-12-18T10:29:39;3.90;99.90
46159;DHT22;31888;44.512;26.104;2022-12-18T10:32:05;3.80;99.90
46159;DHT22;31888;44.512;26.104;2022-12-18T10:34:30;3.80;99.90
46159;DHT22;31888;44.512;26.104;2022-12-18T10:36:54;3.80;99.90
46159;DHT22;31888;44.512;26.104;2022-12-18T10:39:21;3.70;99.90
46159;DHT22;31888;44.512;26.104;2022-12-18T10:41:46;3.80;99.90
46159;DHT22;31888;44.512;26.104;2022-12-18T10:44:15;3.60;99.90
46159;DHT22;31888;44.512;26.104;2022-12-18T10:46:40;3.60;99.90
46159;DHT22;31888;44.512;26.104;2022-12-18T10:49:18;3.60;99.90
46159;DHT22;31888;44.512;26.104;2022-12-18T10:51:44;3.40;99.90
46159;DHT22;31888;44.512;26.104;2022-12-18T10:54:15;3.30;99.90
46159;DHT22;31888;44.512;26.104;2022-12-18T10:56:40;3.20;99.90
46159;DHT22;31888;44.512;26.104;2022-12-18T10:59:08;3.10;99.90
46159;DHT22;31888;44.512;26.104;2022-12-18T11:01:46;3.20;99.90
46159;DHT22;31888;44.512;26.104;2022-12-18T11:04:18;3.30;99.90
46159;DHT22;31888;44.512;26.104;2022-12-18T11:06:53;3.30;99.90
46159;DHT22;31888;44.512;26.104;2022-12-18T11:09:20;3.30;99.90
46159;DHT22;31888;44.512;26.104;2022-12-18T11:11:48;3.20;99.90
46159;DHT22;31888;44.512;26.104;2022-12-18T11:14:18;3.30;99.90
46159;DHT22;31888;44.512;26.104;2022-12-18T11:16:48;3.30;99.90
46159;DHT22;31888;44.512;26.104;2022-12-18T11:19:36;3.40;99.90
46159;DHT22;31888;44.512;26.104;2022-12-18T11:22:03;3.40;99.90
46159;DHT22;31888;44.512;26.104;2022-12-18T11:24:41;3.40;99.90
46159;DHT22;31888;44.512;26.104;2022-12-18T11:27:25;3.50;99.90
46159;DHT22;31888;44.512;26.104;2022-12-18T11:29:50;3.40;99.90
46159;DHT22;31888;44.512;26.104;2022-12-18T11:32:33;3.30;99.90
46159;DHT22;31888;44.512;26.104;2022-12-18T11:35:04;3.40;99.90
46159;DHT22;31888;44.512;26.104;2022-12-18T11:37:33;3.30;99.90
46159;DHT22;31888;44.512;26.104;2022-12-18T11:40:02;3.30;99.90
46159;DHT22;31888;44.512;26.104;2022-12-18T11:42:34;3.20;99.90
46159;DHT22;31888;44.512;26.104;2022-12-18T11:45:03;3.10;99.90
46159;DHT22;31888;44.512;26.104;2022-12-18T11:47:38;3.10;99.90
46159;DHT22;31888;44.512;26.104;2022-12-18T11:50:17;3.10;99.90
46159;DHT22;31888;44.512;26.104;2022-12-18T11:52:42;3.10;99.90
46159;DHT22;31888;44.512;26.104;2022-12-18T11:55:12;3.10;99.90
46159;DHT22;31888;44.512;26.104;2022-12-18T11:57:44;3.20;99.90
46159;DHT22;31888;44.512;26.104;2022-12-18T12:00:16;3.20;99.90
46159;DHT22;31888;44.512;26.104;2022-12-18T12:03:00;3.20;99.90
46159;DHT22;31888;44.512;26.104;2022-12-18T12:05:38;3.20;99.90
46159;DHT22;31888;44.512;26.104;2022-12-18T12:08:10;3.30;99.90
46159;DHT22;31888;44.512;26.104;2022-12-18T12:10:50;3.30;99.90
46159;DHT22;31888;44.512;26.104;2022-12-18T12:13:27;3.40;99.90
46159;DHT22;31888;44.512;26.104;2022-12-18T12:16:04;3.50;99.90
46159;DHT22;31888;44.512;26.104;2022-12-18T12:18:40;3.50;99.90
46159;DHT22;31888;44.512;26.104;2022-12-18T12:21:13;3.50;99.90
46159;DHT22;31888;44.512;26.104;2022-12-18T12:23:44;3.40;99.90
46159;DHT22;31888;44.512;26.104;2022-12-18T12:26:16;3.40;99.90
46159;DHT22;31888;44.512;26.104;2022-12-18T12:29:18;3.30;99.90
46159;DHT22;31888;44.512;26.104;2022-12-18T12:31:59;3.20;99.90
46159;DHT22;31888;44.512;26.104;2022-12-18T12:34:33;3.30;99.90
46159;DHT22;31888;44.512;26.104;2022-12-18T12:37:11;3.20;99.90
46159;DHT22;31888;44.512;26.104;2022-12-18T12:39:42;3.20;99.90
46159;DHT22;31888;44.512;26.104;2022-12-18T12:42:16;3.20;99.90
46159;DHT22;31888;44.512;26.104;2022-12-18T12:45:03;3.20;99.90
46159;DHT22;31888;44.512;26.104;2022-12-18T12:47:33;3.20;99.90
46159;DHT22;31888;44.512;26.104;2022-12-18T12:50:03;3.10;99.90
46159;DHT22;31888;44.512;26.104;2022-12-18T12:52:35;3.10;99.90
46159;DHT22;31888;44.512;26.104;2022-12-18T12:55:02;3.10;99.90
46159;DHT22;31888;44.512;26.104;2022-12-18T12:57:39;3.20;99.90
46159;DHT22;31888;44.512;26.104;2022-12-18T13:00:09;3.10;99.90
46159;DHT22;31888;44.512;26.104;2022-12-18T13:02:42;3.10;99.90
46159;DHT22;31888;44.512;26.104;2022-12-18T13:05:16;3.20;99.90
46159;DHT22;31888;44.512;26.104;2022-12-18T13:07:51;3.30;99.90
46159;DHT22;31888;44.512;26.104;2022-12-18T13:10:26;3.30;99.90
46159;DHT22;31888;44.512;26.104;2022-12-18T13:12:55;3.30;99.90
46159;DHT22;31888;44.512;26.104;2022-12-18T13:15:22;3.30;99.90
46159;DHT22;31888;44.512;26.104;2022-12-18T13:17:48;3.40;99.90
46159;DHT22;31888;44.512;26.104;2022-12-18T13:20:13;3.30;99.90
46159;DHT22;31888;44.512;26.104;2022-12-18T13:22:43;3.30;99.90
46159;DHT22;31888;44.512;26.104;2022-12-18T13:25:30;3.40;99.90
46159;DHT22;31888;44.512;26.104;2022-12-18T13:28:00;3.30;99.90
46159;DHT22;31888;44.512;26.104;2022-12-18T13:30:48;3.40;99.90
46159;DHT22;31888;44.512;26.104;2022-12-18T13:33:47;3.30;99.90
46159;DHT22;31888;44.512;26.104;2022-12-18T13:36:33;3.30;99.90
46159;DHT22;31888;44.512;26.104;2022-12-18T13:39:32;3.40;99.90
46159;DHT22;31888;44.512;26.104;2022-12-18T13:42:41;3.40;99.90
46159;DHT22;31888;44.512;26.104;2022-12-18T13:45:45;3.50;99.90
46159;DHT22;31888;44.512;26.104;2022-12-18T13:48:22;3.20;99.90
46159;DHT22;31888;44.512;26.104;2022-12-18T13:50:57;3.20;99.90
46159;DHT22;31888;44.512;26.104;2022-12-18T13:53:24;3.20;99.90
46159;DHT22;31888;44.512;26.104;2022-12-18T13:55:50;3.10;99.90
46159;DHT22;31888;44.512;26.104;2022-12-18T13:58:16;3.10;99.90
46159;DHT22;31888;44.512;26.104;2022-12-18T14:00:42;3.00;99.90
46159;DHT22;31888;44.512;26.104;2022-12-18T14:03:18;2.90;99.90
46159;DHT22;31888;44.512;26.104;2022-12-18T14:05:45;3.00;99.90
46159;DHT22;31888;44.512;26.104;2022-12-18T14:08:14;3.10;99.90
46159;DHT22;31888;44.512;26.104;2022-12-18T14:10:41;3.20;99.90
46159;DHT22;31888;44.512;26.104;2022-12-18T14:13:18;3.20;99.90
46159;DHT22;31888;44.512;26.104;2022-12-18T14:15:47;3.20;99.90
46159;DHT22;31888;44.512;26.104;2022-12-18T14:18:20;3.10;99.90
46159;DHT22;31888;44.512;26.104;2022-12-18T14:20:45;3.20;99.90
46159;DHT22;31888;44.512;26.104;2022-12-18T14:23:29;3.20;99.90
46159;DHT22;31888;44.512;26.104;2022-12-18T14:25:54;3.10;99.90
46159;DHT22;31888;44.512;26.104;2022-12-18T14:28:28;3.00;99.90
46159;DHT22;31888;44.512;26.104;2022-12-18T14:30:53;3.10;99.90
46159;DHT22;31888;44.512;26.104;2022-12-18T14:33:20;3.10;99.90
46159;DHT22;31888;44.512;26.104;2022-12-18T14:35:54;3.20;99.90
46159;DHT22;31888;44.512;26.104;2022-12-18T14:38:25;3.20;99.90
46159;DHT22;31888;44.512;26.104;2022-12-18T14:40:54;3.20;99.90
46159;DHT22;31888;44.512;26.104;2022-12-18T14:43:19;3.10;99.90
46159;DHT22;31888;44.512;26.104;2022-12-18T14:45:46;3.20;99.90
46159;DHT22;31888;44.512;26.104;2022-12-18T14:48:16;3.30;99.90
46159;DHT22;31888;44.512;26.104;2022-12-18T14:50:55;3.20;99.90
46159;DHT22;31888;44.512;26.104;2022-12-18T14:53:23;3.20;99.90
46159;DHT22;31888;44.512;26.104;2022-12-18T14:55:49;3.10;99.90
46159;DHT22;31888;44.512;26.104;2022-12-18T14:58:15;2.90;99.90
46159;DHT22;31888;44.512;26.104;2022-12-18T15:00:42;2.90;99.90
46159;DHT22;31888;44.512;26.104;2022-12-18T15:03:08;2.90;99.90
46159;DHT22;31888;44.512;26.104;2022-12-18T15:05:33;2.90;99.90
46159;DHT22;31888;44.512;26.104;2022-12-18T15:07:59;2.90;99.90
46159;DHT22;31888;44.512;26.104;2022-12-18T15:10:26;2.90;99.90
46159;DHT22;31888;44.512;26.104;2022-12-18T15:13:07;2.90;99.90
46159;DHT22;31888;44.512;26.104;2022-12-18T15:15:46;2.80;99.90
46159;DHT22;31888;44.512;26.104;2022-12-18T15:18:13;2.70;99.90
46159;DHT22;31888;44.512;26.104;2022-12-18T15:20:42;2.70;99.90
46159;DHT22;31888;44.512;26.104;2022-12-18T15:23:14;2.70;99.90
46159;DHT22;31888;44.512;26.104;2022-12-18T15:25:40;2.60;99.90
46159;DHT22;31888;44.512;26.104;2022-12-18T15:28:17;2.60;99.90
46159;DHT22;31888;44.512;26.104;2022-12-18T15:30:59;2.70;99.90
46159;DHT22;31888;44.512;26.104;2022-12-18T15:33:26;2.70;99.90
46159;DHT22;31888;44.512;26.104;2022-12-18T15:35:56;2.80;99.90
46159;DHT22;31888;44.512;26.104;2022-12-18T15:38:21;2.90;99.90
46159;DHT22;31888;44.512;26.104;2022-12-18T15:40:46;2.90;99.90